Kazime Ana — TCPT8 — position and weather

sailwx.info

Track history (hours):
 
Tides and Currents Weather Stations Pressure Air Temp Water Temp Dewpoint Dewpoint Depression Visibility Wind Speed Wind Dir Waves Ship Positions

Kazime Ana

Last reported at 2017-Jun-24 18:54 UTC. Time now 2017-Jun-29 09:11 UTC.
Position N 36°19' E 035°12'.

Length 115 m; draft 7.4 m.

Type: Cargo ship. MMSI: 271001019.

Date/timePositionNaut miles runAvg speedWind from/ knotsBaromVisibWave heightAir tempDewpointWater temp
2017-Jun-24 18:54N 36°19' E 035°12'11 9.5
2017-Jun-24 17:46N 36°17' E 034°59'3 9.7
2017-Jun-24 17:30N 36°17' E 034°56'8 9.6
2017-Jun-24 16:41N 36°15' E 034°47'5 9.6
2017-Jun-24 16:12N 36°14' E 034°41'2 9.6
2017-Jun-24 16:00N 36°14' E 034°38'5 9.6
2017-Jun-24 15:30N 36°13' E 034°33'120 9.0
2017-Jun-24 02:13N 36°01' E 032°05'2 9.4
2017-Jun-24 02:00N 36°01' E 032°03'5 9.5
2017-Jun-24 01:29N 36°01' E 031°57'5 9.5
2017-Jun-24 01:00N 36°02' E 031°51'5 9.6
2017-Jun-24 00:27N 36°02' E 031°44'5 9.4
2017-Jun-23 23:54N 36°02' E 031°38'7 9.1
2017-Jun-23 23:08N 36°02' E 031°29'1 9.1
2017-Jun-23 23:00N 36°03' E 031°28'4 9.1
2017-Jun-23 22:31N 36°03' E 031°22'5 9.1
2017-Jun-23 22:00N 36°03' E 031°17'5 9.2
2017-Jun-23 21:30N 36°04' E 031°11'5 9.2
2017-Jun-23 21:00N 36°04' E 031°05'5 9.5
2017-Jun-23 20:30N 36°04' E 030°60'5 9.6
2017-Jun-23 20:00N 36°05' E 030°54'5 9.6
2017-Jun-23 19:30N 36°05' E 030°48'5 9.5
2017-Jun-23 19:00N 36°06' E 030°42'7 9.6
2017-Jun-23 18:19N 36°06' E 030°34'3 9.6
2017-Jun-23 17:59N 36°06' E 030°30'  
Track history (hours):
 
Tides and Currents Weather Stations Pressure Air Temp Water Temp Dewpoint Dewpoint Depression Visibility Wind Speed Wind Dir Waves Ship Positions

Kazime Ana

Last reported at 2017-Jun-24 18:54 UTC. Time now 2017-Jun-29 09:11 UTC.
Position N 36°19' E 035°12'.

Length 115 m; draft 7.4 m.

Type: Cargo ship. MMSI: 271001019.

Date/timePositionNaut miles runAvg speedWind from/ knotsBaromVisibWave heightAir tempDewpointWater temp
2017-Jun-24 18:54N 36°19' E 035°12'11 9.5
2017-Jun-24 17:46N 36°17' E 034°59'3 9.7
2017-Jun-24 17:30N 36°17' E 034°56'8 9.6
2017-Jun-24 16:41N 36°15' E 034°47'5 9.6
2017-Jun-24 16:12N 36°14' E 034°41'2 9.6
2017-Jun-24 16:00N 36°14' E 034°38'5 9.6
2017-Jun-24 15:30N 36°13' E 034°33'120 9.0
2017-Jun-24 02:13N 36°01' E 032°05'2 9.4
2017-Jun-24 02:00N 36°01' E 032°03'5 9.5
2017-Jun-24 01:29N 36°01' E 031°57'5 9.5
2017-Jun-24 01:00N 36°02' E 031°51'5 9.6
2017-Jun-24 00:27N 36°02' E 031°44'5 9.4
2017-Jun-23 23:54N 36°02' E 031°38'7 9.1
2017-Jun-23 23:08N 36°02' E 031°29'1 9.1
2017-Jun-23 23:00N 36°03' E 031°28'4 9.1
2017-Jun-23 22:31N 36°03' E 031°22'5 9.1
2017-Jun-23 22:00N 36°03' E 031°17'5 9.2
2017-Jun-23 21:30N 36°04' E 031°11'5 9.2
2017-Jun-23 21:00N 36°04' E 031°05'5 9.5
2017-Jun-23 20:30N 36°04' E 030°60'5 9.6
2017-Jun-23 20:00N 36°05' E 030°54'5 9.6
2017-Jun-23 19:30N 36°05' E 030°48'5 9.5
2017-Jun-23 19:00N 36°06' E 030°42'7 9.6
2017-Jun-23 18:19N 36°06' E 030°34'3 9.6
2017-Jun-23 17:59N 36°06' E 030°30'  

Dump ship's entire track history